Time;durP1;ratioP1;P1;durP2;ratioP2;P2;SDS_P1;SDS_P2;PMS_P1;PMS_P2;Temp;Humidity;BMP_temperature;BMP_pressure;BME280_temperature;BME280_humidity;BME280_pressure;Samples;Min_cycle;Max_cycle;Signal;HPM_P1;HPM_P2
2023/07/07 00:00:15;;;;;;;5.43;3.30;;;;;;;;;;5054620;28;20045;-59
2023/07/07 00:02:41;;;;;;;4.90;3.25;;;;;;;;;;5057992;28;20048;-59
2023/07/07 00:05:08;;;;;;;6.83;3.43;;;;;;;;;;5057917;28;20048;-58
2023/07/07 00:07:35;;;;;;;6.97;3.10;;;;;;;;;;5057853;28;20106;-58
2023/07/07 00:10:01;;;;;;;6.45;3.25;;;;;;;;;;5058035;28;20098;-58
2023/07/07 00:12:30;;;;;;;5.80;3.28;;;;;;;;;;5058494;28;20057;-58
2023/07/07 00:14:56;;;;;;;5.28;3.15;;;;;;;;;;5058050;28;20041;-58
2023/07/07 00:17:24;;;;;;;4.03;3.10;;;;;;;;;;5058165;28;20564;-58
2023/07/07 00:19:51;;;;;;;5.18;3.20;;;;;;;;;;5058118;28;20048;-58
2023/07/07 00:22:18;;;;;;;6.60;3.00;;;;;;;;;;5058123;28;20041;-58
2023/07/07 00:24:44;;;;;;;6.22;3.28;;;;;;;;;;5058139;28;20051;-58
2023/07/07 00:27:11;;;;;;;4.57;2.83;;;;;;;;;;5047985;28;20057;-58
2023/07/07 00:29:37;;;;;;;6.65;3.30;;;;;;;;;;5047517;28;20064;-58
2023/07/07 00:32:04;;;;;;;5.28;2.97;;;;;;;;;;5053834;28;20148;-58
2023/07/07 00:34:30;;;;;;;4.63;3.28;;;;;;;;;;5057376;28;20045;-58
2023/07/07 00:36:57;;;;;;;5.60;3.38;;;;;;;;;;5057632;28;20045;-58
2023/07/07 00:39:23;;;;;;;5.57;3.03;;;;;;;;;;5057818;28;20459;-58
2023/07/07 00:41:50;;;;;;;4.35;2.95;;;;;;;;;;5048878;28;20095;-58
2023/07/07 00:44:16;;;;;;;5.05;2.50;;;;;;;;;;5052968;28;20404;-58
2023/07/07 00:46:43;;;;;;;5.68;3.53;;;;;;;;;;5057733;28;20075;-58
2023/07/07 00:49:13;;;;;;;6.07;3.05;;;;;;;;;;5057441;28;20106;-58
2023/07/07 00:51:43;;;;;;;5.63;3.28;;;;;;;;;;5058116;28;20057;-58
2023/07/07 00:54:13;;;;;;;5.47;3.28;;;;;;;;;;5058025;28;20041;-58
2023/07/07 00:56:42;;;;;;;3.97;3.25;;;;;;;;;;5057458;28;20052;-58
2023/07/07 00:59:10;;;;;;;5.18;3.10;;;;;;;;;;5057793;28;20045;-58
2023/07/07 01:01:37;;;;;;;5.38;3.22;;;;;;;;;;5057405;28;20128;-58
2023/07/07 01:04:07;;;;;;;6.70;2.93;;;;;;;;;;5057520;28;20099;-58
2023/07/07 01:06:37;;;;;;;3.95;3.17;;;;;;;;;;5057562;28;20052;-58
2023/07/07 01:09:06;;;;;;;4.47;2.95;;;;;;;;;;5057999;28;20053;-58
2023/07/07 01:11:32;;;;;;;6.72;2.95;;;;;;;;;;5053730;28;20064;-58
2023/07/07 01:14:01;;;;;;;5.03;3.00;;;;;;;;;;5054285;28;20086;-59
2023/07/07 01:16:45;;;;;;;3.85;2.60;;;;;;;;;;5054534;28;20044;-58
2023/07/07 01:19:15;;;;;;;5.90;2.95;;;;;;;;;;5054368;28;20095;-58
2023/07/07 01:21:51;;;;;;;5.63;3.00;;;;;;;;;;5054155;28;20053;-58
2023/07/07 01:24:35;;;;;;;4.38;2.92;;;;;;;;;;5054065;28;20052;-58
2023/07/07 01:27:11;;;;;;;5.47;2.90;;;;;;;;;;5054260;28;20419;-58
2023/07/07 01:29:47;;;;;;;4.38;2.90;;;;;;;;;;5054185;28;20060;-58
2023/07/07 01:32:18;;;;;;;4.03;2.85;;;;;;;;;;5054024;28;20056;-58
2023/07/07 01:34:45;;;;;;;4.20;2.83;;;;;;;;;;5053684;28;20111;-59
2023/07/07 01:37:12;;;;;;;;;;;;;;;;;;5054407;28;20041;-58
2023/07/07 01:39:39;;;;;;;4.47;2.78;;;;;;;;;;5054015;28;20277;-58
2023/07/07 01:42:09;;;;;;;4.15;2.90;;;;;;;;;;5054096;28;20052;-58
2023/07/07 01:44:35;;;;;;;4.72;2.72;;;;;;;;;;5053638;28;20061;-58
2023/07/07 01:47:18;;;;;;;5.97;3.15;;;;;;;;;;5053750;28;20045;-58
2023/07/07 01:49:54;;;;;;;4.35;2.90;;;;;;;;;;5053524;28;20135;-58
2023/07/07 01:52:29;;;;;;;3.97;2.67;;;;;;;;;;5053569;28;20049;-58
2023/07/07 01:55:03;;;;;;;3.58;2.72;;;;;;;;;;5053667;28;20041;-58
2023/07/07 01:57:30;;;;;;;4.50;2.70;;;;;;;;;;5053426;28;20508;-58
2023/07/07 01:59:57;;;;;;;6.82;3.08;;;;;;;;;;5053305;28;20048;-58
2023/07/07 02:02:23;;;;;;;6.80;3.10;;;;;;;;;;5052264;28;20409;-58
2023/07/07 02:04:50;;;;;;;7.13;3.25;;;;;;;;;;5053628;28;20048;-58
2023/07/07 02:07:17;;;;;;;5.32;3.08;;;;;;;;;;5053208;28;20052;-58
2023/07/07 02:09:43;;;;;;;5.83;3.17;;;;;;;;;;5053365;28;20076;-58
2023/07/07 02:12:10;;;;;;;5.45;3.00;;;;;;;;;;5053180;28;20052;-58
2023/07/07 02:14:36;;;;;;;4.45;2.92;;;;;;;;;;5053018;28;20088;-58
2023/07/07 02:17:03;;;;;;;4.97;2.72;;;;;;;;;;5053238;28;20484;-58
2023/07/07 02:19:29;;;;;;;7.53;2.90;;;;;;;;;;5053330;28;20079;-58
2023/07/07 02:21:56;;;;;;;6.63;2.97;;;;;;;;;;5053012;28;20045;-58
2023/07/07 02:24:22;;;;;;;4.97;2.75;;;;;;;;;;5052767;28;20554;-58
2023/07/07 02:26:50;;;;;;;4.60;3.05;;;;;;;;;;5053124;28;20068;-58
2023/07/07 02:29:16;;;;;;;5.10;3.00;;;;;;;;;;5052867;28;20099;-58
2023/07/07 02:31:43;;;;;;;5.00;3.00;;;;;;;;;;5053140;28;20066;-58
2023/07/07 02:34:09;;;;;;;4.05;2.70;;;;;;;;;;5051624;28;20140;-58
2023/07/07 02:36:36;;;;;;;5.82;2.85;;;;;;;;;;5052740;28;20056;-58
2023/07/07 02:39:03;;;;;;;3.53;2.67;;;;;;;;;;5052554;28;20052;-58
2023/07/07 02:41:29;;;;;;;6.70;3.38;;;;;;;;;;5052652;28;20049;-58
2023/07/07 02:43:56;;;;;;;4.88;3.05;;;;;;;;;;5052547;28;20056;-58
2023/07/07 02:46:22;;;;;;;3.85;2.72;;;;;;;;;;5052693;28;20488;-58
2023/07/07 02:48:49;;;;;;;3.55;3.25;;;;;;;;;;5052398;28;20061;-58
2023/07/07 02:51:15;;;;;;;5.45;3.08;;;;;;;;;;5052702;28;20056;-58
2023/07/07 02:53:42;;;;;;;4.70;2.95;;;;;;;;;;5052666;28;20382;-58
2023/07/07 02:56:08;;;;;;;4.50;2.63;;;;;;;;;;5052214;28;20056;-58
2023/07/07 02:58:35;;;;;;;5.47;3.40;;;;;;;;;;5052289;28;20045;-58
2023/07/07 03:01:11;;;;;;;5.95;2.90;;;;;;;;;;5052254;28;20081;-58
2023/07/07 03:03:39;;;;;;;3.70;2.78;;;;;;;;;;5050455;28;20053;-58
2023/07/07 03:06:05;;;;;;;;;;;;;;;;;;5047337;28;20056;-58
2023/07/07 03:08:32;;;;;;;4.43;2.80;;;;;;;;;;5051906;28;19929;-59
2023/07/07 03:11:03;;;;;;;5.82;3.28;;;;;;;;;;5051970;28;20052;-58
2023/07/07 03:13:29;;;;;;;3.22;2.35;;;;;;;;;;5051949;28;20103;-58
2023/07/07 03:15:55;;;;;;;5.68;3.10;;;;;;;;;;5052188;28;20049;-58
2023/07/07 03:18:22;;;;;;;4.05;2.85;;;;;;;;;;5051965;28;20055;-58
2023/07/07 03:20:49;;;;;;;3.70;3.00;;;;;;;;;;5052167;28;20049;-58
2023/07/07 03:23:15;;;;;;;7.68;2.90;;;;;;;;;;5052005;28;20400;-58
2023/07/07 03:25:42;;;;;;;4.97;2.83;;;;;;;;;;5051832;28;20409;-58
2023/07/07 03:28:08;;;;;;;4.25;2.67;;;;;;;;;;5051996;28;20049;-58
2023/07/07 03:30:35;;;;;;;4.57;2.80;;;;;;;;;;5052049;28;20053;-58
2023/07/07 03:33:01;;;;;;;4.40;2.47;;;;;;;;;;5052035;28;20060;-58
2023/07/07 03:35:27;;;;;;;5.50;2.63;;;;;;;;;;5051061;28;20102;-58
2023/07/07 03:37:54;;;;;;;5.05;3.03;;;;;;;;;;5051917;28;20053;-58
2023/07/07 03:40:20;;;;;;;4.13;2.40;;;;;;;;;;5051707;28;20056;-58
2023/07/07 03:42:47;;;;;;;4.57;2.78;;;;;;;;;;5051756;28;20455;-58
2023/07/07 03:45:15;;;;;;;5.30;2.80;;;;;;;;;;5051915;28;20053;-58
2023/07/07 03:47:43;;;;;;;4.85;2.75;;;;;;;;;;5051520;28;20064;-58
2023/07/07 03:50:10;;;;;;;5.00;2.40;;;;;;;;;;5051747;28;20052;-58
2023/07/07 03:52:36;;;;;;;6.57;2.75;;;;;;;;;;5051690;28;20455;-58
2023/07/07 03:55:03;;;;;;;5.57;2.72;;;;;;;;;;5051613;28;20049;-58
2023/07/07 03:57:30;;;;;;;3.00;2.30;;;;;;;;;;5051336;28;20580;-58
2023/07/07 03:59:57;;;;;;;5.10;2.47;;;;;;;;;;5051364;28;20049;-58
2023/07/07 04:02:23;;;;;;;4.18;2.50;;;;;;;;;;5051404;28;20107;-58
2023/07/07 04:04:50;;;;;;;5.75;2.65;;;;;;;;;;5051331;28;20455;-58
2023/07/07 04:07:16;;;;;;;5.15;2.72;;;;;;;;;;5051247;28;20473;-58
2023/07/07 04:09:43;;;;;;;3.28;2.60;;;;;;;;;;5051224;28;20052;-58
2023/07/07 04:12:09;;;;;;;3.35;2.80;;;;;;;;;;5051836;28;20126;-58
2023/07/07 04:14:36;;;;;;;7.47;3.03;;;;;;;;;;5051070;28;20496;-58
2023/07/07 04:17:02;;;;;;;4.65;2.80;;;;;;;;;;5051362;28;20045;-58
2023/07/07 04:19:29;;;;;;;3.45;2.83;;;;;;;;;;5051148;28;20227;-58
2023/07/07 04:21:56;;;;;;;2.78;2.30;;;;;;;;;;5051214;28;20049;-58
2023/07/07 04:24:22;;;;;;;5.40;2.70;;;;;;;;;;5051139;28;20484;-58
2023/07/07 04:26:50;;;;;;;3.40;2.58;;;;;;;;;;5051378;28;20522;-58
2023/07/07 04:29:17;;;;;;;2.35;2.15;;;;;;;;;;5051166;28;20045;-58
2023/07/07 04:31:45;;;;;;;5.47;2.88;;;;;;;;;;5051092;28;20052;-58
2023/07/07 04:34:13;;;;;;;4.82;2.60;;;;;;;;;;5051001;28;20495;-58
2023/07/07 04:36:39;;;;;;;2.80;2.60;;;;;;;;;;5051252;28;20146;-58
2023/07/07 04:39:08;;;;;;;5.60;2.72;;;;;;;;;;5051201;28;20056;-58
2023/07/07 04:41:35;;;;;;;3.83;2.67;;;;;;;;;;5051262;28;20060;-58
2023/07/07 04:44:02;;;;;;;5.20;3.10;;;;;;;;;;5051089;28;20049;-58
2023/07/07 04:46:31;;;;;;;7.05;3.25;;;;;;;;;;5051332;28;20049;-58
2023/07/07 04:48:58;;;;;;;5.43;2.65;;;;;;;;;;5054668;28;20072;-58
2023/07/07 04:51:25;;;;;;;4.38;2.78;;;;;;;;;;5053734;28;20408;-58
2023/07/07 04:53:51;;;;;;;5.95;3.10;;;;;;;;;;5054809;28;20049;-58
2023/07/07 04:56:22;;;;;;;4.93;3.05;;;;;;;;;;5054555;28;20516;-58
2023/07/07 04:58:49;;;;;;;7.50;2.92;;;;;;;;;;5054551;28;20480;-58
2023/07/07 05:01:17;;;;;;;5.00;3.30;;;;;;;;;;5054806;28;20455;-58
2023/07/07 05:03:44;;;;;;;7.05;2.70;;;;;;;;;;5054662;28;20095;-58
2023/07/07 05:06:11;;;;;;;5.88;2.83;;;;;;;;;;5053525;28;20098;-58
2023/07/07 05:08:39;;;;;;;5.50;2.50;;;;;;;;;;5054600;28;20064;-58
2023/07/07 05:11:06;;;;;;;4.55;2.63;;;;;;;;;;5054336;28;20049;-58
2023/07/07 05:13:33;;;;;;;5.13;2.80;;;;;;;;;;5054245;28;20087;-58
2023/07/07 05:16:04;;;;;;;3.13;2.78;;;;;;;;;;5054059;28;20075;-58
2023/07/07 05:18:30;;;;;;;3.90;2.53;;;;;;;;;;5054415;28;20064;-58
2023/07/07 05:20:57;;;;;;;3.85;2.70;;;;;;;;;;5054138;28;20045;-58
2023/07/07 05:23:26;;;;;;;3.10;2.45;;;;;;;;;;5054390;28;20041;-58
2023/07/07 05:25:53;;;;;;;4.38;2.95;;;;;;;;;;5054166;28;20053;-58
2023/07/07 05:28:20;;;;;;;3.72;2.65;;;;;;;;;;5053969;28;20076;-58
2023/07/07 05:30:46;;;;;;;6.77;2.53;;;;;;;;;;5053041;28;20106;-58
2023/07/07 05:33:13;;;;;;;4.67;2.60;;;;;;;;;;5053925;28;20045;-58
2023/07/07 05:36:08;;;;;;;5.63;2.40;;;;;;;;;;5053844;28;20098;-58
2023/07/07 05:38:35;;;;;;;5.38;2.35;;;;;;;;;;5038589;28;20044;-58
2023/07/07 05:41:01;;;;;;;6.28;2.25;;;;;;;;;;5054113;28;20049;-58
2023/07/07 05:43:28;;;;;;;3.95;2.50;;;;;;;;;;5052435;28;20128;-58
2023/07/07 05:45:56;;;;;;;6.35;2.30;;;;;;;;;;5053650;28;20056;-58
2023/07/07 05:48:24;;;;;;;5.25;2.45;;;;;;;;;;5053423;28;20084;-58
2023/07/07 05:50:53;;;;;;;3.58;2.45;;;;;;;;;;5053678;28;20103;-58
2023/07/07 05:53:19;;;;;;;;;;;;;;;;;;5053937;28;20049;-58
2023/07/07 05:55:46;;;;;;;5.85;2.55;;;;;;;;;;5053489;28;20414;-58
2023/07/07 05:58:14;;;;;;;4.07;2.37;;;;;;;;;;5053176;28;20053;-58
2023/07/07 06:00:40;;;;;;;4.70;2.50;;;;;;;;;;5053381;28;20484;-58
2023/07/07 06:03:07;;;;;;;3.30;2.30;;;;;;;;;;5053359;28;20501;-58
2023/07/07 06:05:34;;;;;;;7.20;2.55;;;;;;;;;;5053344;28;20386;-58
2023/07/07 06:08:00;;;;;;;5.13;2.13;;;;;;;;;;5053231;28;20069;-58
2023/07/07 06:10:27;;;;;;;4.55;2.53;;;;;;;;;;5053136;28;20053;-58
2023/07/07 06:12:53;;;;;;;5.75;2.38;;;;;;;;;;5053143;28;20049;-58
2023/07/07 06:15:20;;;;;;;9.27;2.45;;;;;;;;;;5053256;28;20048;-58
2023/07/07 06:17:46;;;;;;;4.72;2.17;;;;;;;;;;5053214;28;20060;-58
2023/07/07 06:20:13;;;;;;;5.80;2.38;;;;;;;;;;5053022;28;20075;-58
2023/07/07 06:22:39;;;;;;;4.37;2.20;;;;;;;;;;5052802;28;20048;-58
2023/07/07 06:25:07;;;;;;;5.97;2.30;;;;;;;;;;5053247;28;20144;-58
2023/07/07 06:27:33;;;;;;;6.57;2.00;;;;;;;;;;5040530;28;20076;-59
2023/07/07 06:30:00;;;;;;;4.80;2.30;;;;;;;;;;5033119;28;20048;-57
2023/07/07 06:32:26;;;;;;;5.95;2.13;;;;;;;;;;5032850;28;20497;-58
2023/07/07 06:34:53;;;;;;;5.20;1.98;;;;;;;;;;5032580;28;20489;-58
2023/07/07 06:37:19;;;;;;;4.57;2.10;;;;;;;;;;5032785;28;20478;-58
2023/07/07 06:39:46;;;;;;;7.70;2.22;;;;;;;;;;5033013;28;20049;-58
2023/07/07 06:42:12;;;;;;;3.67;1.92;;;;;;;;;;5032599;28;20046;-58
2023/07/07 06:44:40;;;;;;;3.72;2.10;;;;;;;;;;5031453;28;20057;-58
2023/07/07 06:47:13;;;;;;;3.47;1.75;;;;;;;;;;5051270;28;20045;-58
2023/07/07 06:49:40;;;;;;;3.85;1.98;;;;;;;;;;5052439;28;20131;-57
2023/07/07 06:52:07;;;;;;;3.13;2.03;;;;;;;;;;5052386;28;20045;-57
2023/07/07 06:54:34;;;;;;;4.32;2.03;;;;;;;;;;5052303;28;20049;-58
2023/07/07 06:57:00;;;;;;;5.28;2.20;;;;;;;;;;5051531;28;20053;-58
2023/07/07 06:59:27;;;;;;;5.00;2.00;;;;;;;;;;5034970;28;20409;-58
2023/07/07 07:01:53;;;;;;;2.47;1.65;;;;;;;;;;5031939;28;20049;-58
2023/07/07 07:04:20;;;;;;;4.80;2.20;;;;;;;;;;5041487;28;20094;-58
2023/07/07 07:06:46;;;;;;;3.47;1.75;;;;;;;;;;5045839;28;20060;-58
2023/07/07 07:09:14;;;;;;;6.20;2.05;;;;;;;;;;5051558;28;20045;-58
2023/07/07 07:11:40;;;;;;;3.70;2.08;;;;;;;;;;5052152;28;20475;-58
2023/07/07 07:14:07;;;;;;;5.97;2.10;;;;;;;;;;5052260;28;20049;-58
2023/07/07 07:16:33;;;;;;;2.50;1.65;;;;;;;;;;5051986;28;20041;-58
2023/07/07 07:19:00;;;;;;;5.77;1.73;;;;;;;;;;5052338;28;20087;-58
2023/07/07 07:21:26;;;;;;;5.28;1.80;;;;;;;;;;5052207;28;20051;-58
2023/07/07 07:23:53;;;;;;;5.82;1.92;;;;;;;;;;5044299;28;20049;-58
2023/07/07 07:26:19;;;;;;;3.60;1.90;;;;;;;;;;5045281;28;20044;-58
2023/07/07 07:28:45;;;;;;;4.70;2.10;;;;;;;;;;5035082;28;20052;-57
2023/07/07 07:31:12;;;;;;;4.97;1.65;;;;;;;;;;5032406;28;20421;-60
2023/07/07 07:33:39;;;;;;;4.50;1.88;;;;;;;;;;5052018;28;20049;-60
2023/07/07 07:36:05;;;;;;;7.22;1.70;;;;;;;;;;5045034;28;20045;-59
2023/07/07 07:38:32;;;;;;;4.40;1.80;;;;;;;;;;5031674;28;20049;-59
2023/07/07 07:40:58;;;;;;;4.20;1.60;;;;;;;;;;5048536;28;20087;-59
2023/07/07 07:43:25;;;;;;;4.25;1.77;;;;;;;;;;5037084;28;20071;-59
2023/07/07 07:45:53;;;;;;;3.27;1.73;;;;;;;;;;5051790;28;20065;-60
2023/07/07 07:48:20;;;;;;;3.83;1.90;;;;;;;;;;5051261;28;20083;-60
2023/07/07 07:50:46;;;;;;;3.67;1.67;;;;;;;;;;5051716;28;20053;-59
2023/07/07 07:53:13;;;;;;;4.90;1.90;;;;;;;;;;5051775;28;20060;-59
2023/07/07 07:55:39;;;;;;;3.07;1.67;;;;;;;;;;5051526;28;20052;-59
2023/07/07 07:58:06;;;;;;;3.13;1.80;;;;;;;;;;5051707;28;20049;-59
2023/07/07 08:00:32;;;;;;;4.18;1.70;;;;;;;;;;5051338;28;20045;-59
2023/07/07 08:02:59;;;;;;;3.47;1.80;;;;;;;;;;5051666;28;20049;-59
2023/07/07 08:05:25;;;;;;;5.28;1.75;;;;;;;;;;5049440;28;20051;-59
2023/07/07 08:07:52;;;;;;;3.40;1.70;;;;;;;;;;5039057;28;20056;-59
2023/07/07 08:10:18;;;;;;;2.95;1.83;;;;;;;;;;5049614;28;20128;-59
2023/07/07 08:12:45;;;;;;;3.03;1.90;;;;;;;;;;5028462;28;20049;-60
2023/07/07 08:15:11;;;;;;;4.40;1.88;;;;;;;;;;5043454;28;20052;-59
2023/07/07 08:17:38;;;;;;;3.08;2.15;;;;;;;;;;5041533;28;20047;-60
2023/07/07 08:20:05;;;;;;;4.80;1.97;;;;;;;;;;5038874;28;20050;-60
2023/07/07 08:22:31;;;;;;;3.63;1.88;;;;;;;;;;5034471;28;20050;-60
2023/07/07 08:24:58;;;;;;;3.97;1.88;;;;;;;;;;5035116;28;20127;-60
2023/07/07 08:27:26;;;;;;;2.47;1.90;;;;;;;;;;5034905;28;20050;-59
2023/07/07 08:29:55;;;;;;;4.68;2.08;;;;;;;;;;5040475;28;20061;-60
2023/07/07 08:32:22;;;;;;;3.63;2.25;;;;;;;;;;5034464;28;20057;-60
2023/07/07 08:34:50;;;;;;;3.03;1.60;;;;;;;;;;5053222;28;20045;-60
2023/07/07 08:37:21;;;;;;;3.25;1.80;;;;;;;;;;5053411;28;20390;-60
2023/07/07 08:39:47;;;;;;;2.95;1.90;;;;;;;;;;5054614;28;20492;-60
2023/07/07 08:42:37;;;;;;;3.47;1.83;;;;;;;;;;5054931;28;20049;-60
2023/07/07 08:45:11;;;;;;;4.20;2.00;;;;;;;;;;5051444;28;20381;-60
2023/07/07 08:47:52;;;;;;;2.17;1.80;;;;;;;;;;5038551;28;20051;-60
2023/07/07 08:50:31;;;;;;;2.20;1.70;;;;;;;;;;5034361;28;20053;-60
2023/07/07 08:52:57;;;;;;;2.33;1.65;;;;;;;;;;5038802;28;20049;-60
2023/07/07 08:55:33;;;;;;;5.88;1.52;;;;;;;;;;5037565;28;20408;-60
2023/07/07 08:58:07;;;;;;;1.95;1.60;;;;;;;;;;5054144;28;20657;-60
2023/07/07 09:00:53;;;;;;;2.22;1.63;;;;;;;;;;5054158;28;20122;-60
2023/07/07 09:03:43;;;;;;;2.17;1.58;;;;;;;;;;5054025;28;20041;-61
2023/07/07 09:06:12;;;;;;;2.95;1.70;;;;;;;;;;5034569;28;20044;-60
2023/07/07 09:08:50;;;;;;;3.55;1.73;;;;;;;;;;5054037;28;20100;-60
2023/07/07 09:11:23;;;;;;;5.47;1.65;;;;;;;;;;5054096;28;20052;-60
2023/07/07 09:13:51;;;;;;;2.53;1.42;;;;;;;;;;5054005;28;20053;-61
2023/07/07 09:16:22;;;;;;;2.95;1.67;;;;;;;;;;5051781;28;20516;-60
2023/07/07 09:18:56;;;;;;;4.13;1.60;;;;;;;;;;5053796;28;20128;-60
2023/07/07 09:21:31;;;;;;;2.17;1.58;;;;;;;;;;5053645;28;20151;-60
2023/07/07 09:24:00;;;;;;;3.40;1.42;;;;;;;;;;5053934;28;20060;-60
2023/07/07 09:26:31;;;;;;;3.05;1.30;;;;;;;;;;5039473;28;20057;-60
2023/07/07 09:28:59;;;;;;;3.22;1.70;;;;;;;;;;5039848;28;20053;-60
2023/07/07 09:31:29;;;;;;;2.67;1.58;;;;;;;;;;5053465;28;20516;-60
2023/07/07 09:33:56;;;;;;;2.85;1.60;;;;;;;;;;5052465;28;20088;-60
2023/07/07 09:36:26;;;;;;;2.33;1.35;;;;;;;;;;5053269;28;20057;-60
2023/07/07 09:38:58;;;;;;;2.45;1.50;;;;;;;;;;5053508;28;20057;-60
2023/07/07 09:41:32;;;;;;;2.25;1.70;;;;;;;;;;5053634;28;20045;-60
2023/07/07 09:44:07;;;;;;;1.90;1.30;;;;;;;;;;5039275;28;20045;-60
2023/07/07 09:46:42;;;;;;;1.85;1.50;;;;;;;;;;5053139;28;20048;-60
2023/07/07 09:49:11;;;;;;;2.05;1.88;;;;;;;;;;5052944;28;20053;-60
2023/07/07 09:51:41;;;;;;;2.30;1.20;;;;;;;;;;5053119;28;20060;-60
2023/07/07 09:54:09;;;;;;;3.00;1.75;;;;;;;;;;5053373;28;20516;-60
2023/07/07 09:56:46;;;;;;;2.25;1.75;;;;;;;;;;5044089;28;20079;-60
2023/07/07 09:59:18;;;;;;;3.05;1.70;;;;;;;;;;5048998;28;20053;-60
2023/07/07 10:01:47;;;;;;;3.70;1.70;;;;;;;;;;5052963;28;20051;-59
2023/07/07 10:04:15;;;;;;;3.50;1.70;;;;;;;;;;5052909;28;20165;-60
2023/07/07 10:06:48;;;;;;;2.03;1.50;;;;;;;;;;5052821;28;20107;-60
2023/07/07 10:09:15;;;;;;;1.60;1.45;;;;;;;;;;5052678;28;20057;-60
2023/07/07 10:11:42;;;;;;;2.50;1.40;;;;;;;;;;5052893;28;20053;-60
2023/07/07 10:14:12;;;;;;;2.03;1.38;;;;;;;;;;5052664;28;20417;-60
2023/07/07 10:16:47;;;;;;;2.30;1.50;;;;;;;;;;5050538;28;20060;-60
2023/07/07 10:19:14;;;;;;;3.38;1.60;;;;;;;;;;5047911;28;20045;-60
2023/07/07 10:21:42;;;;;;;2.83;1.60;;;;;;;;;;5043236;28;20396;-60
2023/07/07 10:24:12;;;;;;;4.00;1.48;;;;;;;;;;5052616;28;20114;-60
2023/07/07 10:26:39;;;;;;;2.38;1.35;;;;;;;;;;5052727;28;20062;-60
2023/07/07 10:29:10;;;;;;;1.65;1.23;;;;;;;;;;5052608;28;20403;-60
2023/07/07 10:31:40;;;;;;;1.42;1.15;;;;;;;;;;5052275;28;20488;-60
2023/07/07 10:34:17;;;;;;;1.80;1.20;;;;;;;;;;5052317;28;20131;-60
2023/07/07 10:36:43;;;;;;;1.58;1.02;;;;;;;;;;5052177;28;20048;-60
2023/07/07 10:39:13;;;;;;;2.30;0.93;;;;;;;;;;5052375;28;20049;-60
2023/07/07 10:41:39;;;;;;;1.58;0.90;;;;;;;;;;5052472;28;20049;-60
2023/07/07 10:44:08;;;;;;;1.50;1.00;;;;;;;;;;5052314;28;20052;-60
2023/07/07 10:46:34;;;;;;;3.15;1.30;;;;;;;;;;5052519;28;20136;-60
2023/07/07 10:49:03;;;;;;;2.63;2.08;;;;;;;;;;5050580;28;20057;-60
2023/07/07 10:51:52;;;;;;;1.48;1.38;;;;;;;;;;5052148;28;20102;-60
2023/07/07 10:54:22;;;;;;;3.67;1.42;;;;;;;;;;5051907;28;20045;-60
2023/07/07 10:56:55;;;;;;;2.47;1.27;;;;;;;;;;5051988;28;20053;-60
2023/07/07 10:59:21;;;;;;;1.70;1.27;;;;;;;;;;5052291;28;20049;-60
2023/07/07 11:01:51;;;;;;;1.33;1.10;;;;;;;;;;5038251;28;20473;-60
2023/07/07 11:04:22;;;;;;;2.05;1.25;;;;;;;;;;5041475;28;20046;-60
2023/07/07 11:07:05;;;;;;;2.25;1.42;;;;;;;;;;5048339;28;20419;-60
2023/07/07 11:09:42;;;;;;;3.47;1.67;;;;;;;;;;5051715;28;20048;-60
2023/07/07 11:12:12;;;;;;;2.33;1.38;;;;;;;;;;5049483;28;20057;-61
2023/07/07 11:14:44;;;;;;;3.42;1.70;;;;;;;;;;5048279;28;20398;-60
2023/07/07 11:17:17;;;;;;;2.80;1.77;;;;;;;;;;5051715;28;20045;-60
2023/07/07 11:19:44;;;;;;;1.88;1.70;;;;;;;;;;5051573;28;20424;-61
2023/07/07 11:22:16;;;;;;;3.17;1.70;;;;;;;;;;5051456;28;20049;-61
2023/07/07 11:24:55;;;;;;;1.30;1.20;;;;;;;;;;5051623;28;20049;-60
2023/07/07 11:27:34;;;;;;;2.53;1.50;;;;;;;;;;5051654;28;20091;-60
2023/07/07 11:30:18;;;;;;;2.42;1.55;;;;;;;;;;5051290;28;20048;-60
2023/07/07 11:32:54;;;;;;;1.95;1.30;;;;;;;;;;5051599;28;20443;-60
2023/07/07 11:35:24;;;;;;;2.97;1.20;;;;;;;;;;5051176;28;20048;-60
2023/07/07 11:38:11;;;;;;;2.03;1.10;;;;;;;;;;5051134;28;20124;-60
2023/07/07 11:40:56;;;;;;;1.65;1.20;;;;;;;;;;5051134;28;20045;-60
2023/07/07 11:43:23;;;;;;;2.13;1.27;;;;;;;;;;5050952;28;20048;-60
2023/07/07 11:46:13;;;;;;;2.35;1.20;;;;;;;;;;5051308;28;20049;-61
2023/07/07 11:48:59;;;;;;;1.25;1.15;;;;;;;;;;5050961;28;20072;-61
2023/07/07 11:51:26;;;;;;;2.40;1.58;;;;;;;;;;5042326;28;20056;-61
2023/07/07 11:54:19;;;;;;;1.77;1.08;;;;;;;;;;5050781;28;20056;-61
2023/07/07 11:57:04;;;;;;;2.45;1.17;;;;;;;;;;5027481;28;20057;-62
2023/07/07 11:59:38;;;;;;;1.30;1.20;;;;;;;;;;5050727;28;20041;-62
2023/07/07 12:02:11;;;;;;;1.27;1.10;;;;;;;;;;5051234;28;20041;-61
2023/07/07 12:04:39;;;;;;;1.52;1.00;;;;;;;;;;5044708;28;20049;-62
2023/07/07 12:07:14;;;;;;;2.15;1.10;;;;;;;;;;5051600;28;20044;-62
2023/07/07 12:09:45;;;;;;;0.90;0.88;;;;;;;;;;5051697;28;20110;-61
2023/07/07 12:12:11;;;;;;;1.20;1.10;;;;;;;;;;5051579;28;20496;-61
2023/07/07 12:14:48;;;;;;;1.88;1.08;;;;;;;;;;5051530;28;20451;-62
2023/07/07 12:17:21;;;;;;;1.02;0.93;;;;;;;;;;5051249;28;20045;-61
2023/07/07 12:19:52;;;;;;;0.85;0.85;;;;;;;;;;5051438;28;20060;-59
2023/07/07 12:22:21;;;;;;;1.20;1.10;;;;;;;;;;5051047;28;20409;-59
2023/07/07 12:25:02;;;;;;;2.38;1.20;;;;;;;;;;5051410;28;20049;-59
2023/07/07 12:27:32;;;;;;;3.10;1.13;;;;;;;;;;5051270;28;20045;-59
2023/07/07 12:30:00;;;;;;;1.00;0.85;;;;;;;;;;5051294;28;20102;-59
2023/07/07 12:32:26;;;;;;;1.60;1.10;;;;;;;;;;5050098;28;20409;-60
2023/07/07 12:35:13;;;;;;;2.05;1.10;;;;;;;;;;5051099;28;20045;-59
2023/07/07 12:37:39;;;;;;;1.48;0.95;;;;;;;;;;5039225;28;20482;-59
2023/07/07 12:40:09;;;;;;;0.80;0.80;;;;;;;;;;5045659;28;20489;-59
2023/07/07 12:42:39;;;;;;;1.23;0.85;;;;;;;;;;5030693;28;20045;-59
2023/07/07 12:45:07;;;;;;;1.42;0.80;;;;;;;;;;5049477;28;20049;-60
2023/07/07 12:47:36;;;;;;;1.48;0.73;;;;;;;;;;5050809;28;20045;-60
2023/07/07 12:50:05;;;;;;;1.50;1.13;;;;;;;;;;5051170;28;20087;-59
2023/07/07 12:52:40;;;;;;;0.85;0.85;;;;;;;;;;5050968;28;20098;-59
2023/07/07 12:55:28;;;;;;;0.73;0.70;;;;;;;;;;5050844;28;20064;-60
2023/07/07 12:58:07;;;;;;;1.70;0.80;;;;;;;;;;5051033;28;20049;-59
2023/07/07 13:00:36;;;;;;;1.45;0.90;;;;;;;;;;5033080;28;20057;-59
2023/07/07 13:03:09;;;;;;;2.67;0.80;;;;;;;;;;5043938;28;20049;-59
2023/07/07 13:05:47;;;;;;;1.55;0.80;;;;;;;;;;5043524;28;20085;-60
2023/07/07 13:08:49;;;;;;;3.40;0.90;;;;;;;;;;5040680;28;20404;-60
2023/07/07 13:11:26;;;;;;;1.17;0.90;;;;;;;;;;4992830;28;20442;-60
2023/07/07 13:13:53;;;;;;;1.75;1.00;;;;;;;;;;5042945;28;20052;-59
2023/07/07 13:16:20;;;;;;;2.00;0.80;;;;;;;;;;5047267;28;20076;-59
2023/07/07 13:18:46;;;;;;;1.35;0.93;;;;;;;;;;5043079;28;20476;-59
2023/07/07 13:21:13;;;;;;;0.80;0.80;;;;;;;;;;5033780;28;20485;-59
2023/07/07 13:23:44;;;;;;;1.02;0.80;;;;;;;;;;5033967;28;20049;-59
2023/07/07 13:26:24;;;;;;;0.90;0.90;;;;;;;;;;5039924;28;20056;-59
2023/07/07 13:28:50;;;;;;;1.10;1.00;;;;;;;;;;5037708;28;20073;-59
2023/07/07 13:31:17;;;;;;;1.70;0.80;;;;;;;;;;5039813;28;20053;-59
2023/07/07 13:33:43;;;;;;;0.90;0.85;;;;;;;;;;5053697;28;20053;-59
2023/07/07 13:36:10;;;;;;;0.90;0.90;;;;;;;;;;5039626;28;20049;-59
2023/07/07 13:38:40;;;;;;;0.80;0.80;;;;;;;;;;5032428;28;20049;-59
2023/07/07 13:41:10;;;;;;;0.98;0.95;;;;;;;;;;5034372;28;20061;-59
2023/07/07 13:43:41;;;;;;;1.10;1.10;;;;;;;;;;5053517;28;20064;-60
2023/07/07 13:46:23;;;;;;;1.92;1.00;;;;;;;;;;5047400;28;20554;-59
2023/07/07 13:48:53;;;;;;;1.20;1.20;;;;;;;;;;5036971;28;20416;-60
2023/07/07 13:51:31;;;;;;;1.63;0.98;;;;;;;;;;5034173;28;20559;-59
2023/07/07 13:53:59;;;;;;;1.00;1.00;;;;;;;;;;5033106;28;20060;-59
2023/07/07 13:56:26;;;;;;;1.10;0.90;;;;;;;;;;5033058;28;20062;-59
2023/07/07 13:58:53;;;;;;;1.63;1.00;;;;;;;;;;5036198;28;20058;-59
2023/07/07 14:01:27;;;;;;;1.23;1.13;;;;;;;;;;5033293;28;20103;-59
2023/07/07 14:03:55;;;;;;;1.00;0.90;;;;;;;;;;5048747;28;20045;-60
2023/07/07 14:06:22;;;;;;;1.77;1.20;;;;;;;;;;5043547;28;20060;-59
2023/07/07 14:08:48;;;;;;;1.00;1.00;;;;;;;;;;5048023;28;20057;-60
2023/07/07 14:11:17;;;;;;;0.80;0.80;;;;;;;;;;5042951;28;20550;-59
2023/07/07 14:13:43;;;;;;;3.75;1.40;;;;;;;;;;5037490;28;20567;-59
2023/07/07 14:16:15;;;;;;;1.05;1.00;;;;;;;;;;5052709;28;20072;-59
2023/07/07 14:18:45;;;;;;;1.60;1.00;;;;;;;;;;5052652;28;20489;-59
2023/07/07 14:21:16;;;;;;;0.90;0.90;;;;;;;;;;5050789;28;20053;-59
2023/07/07 14:23:43;;;;;;;0.75;0.75;;;;;;;;;;5031614;28;20099;-59
2023/07/07 14:26:14;;;;;;;1.25;0.88;;;;;;;;;;5044656;28;20099;-59
2023/07/07 14:28:41;;;;;;;1.00;1.00;;;;;;;;;;5045319;28;20052;-59
2023/07/07 14:31:08;;;;;;;0.93;0.88;;;;;;;;;;5052623;28;20103;-59
2023/07/07 14:33:46;;;;;;;1.35;1.25;;;;;;;;;;5052438;28;20412;-59
2023/07/07 14:36:33;;;;;;;1.10;1.10;;;;;;;;;;5052136;28;20057;-58
2023/07/07 14:39:03;;;;;;;1.67;1.00;;;;;;;;;;5042969;28;20070;-59
2023/07/07 14:41:34;;;;;;;1.10;1.10;;;;;;;;;;5052745;28;20512;-59
2023/07/07 14:44:01;;;;;;;1.95;1.20;;;;;;;;;;5049493;28;20056;-59
2023/07/07 14:46:29;;;;;;;1.70;1.08;;;;;;;;;;5037993;28;20667;-59
2023/07/07 14:48:57;;;;;;;1.52;1.30;;;;;;;;;;5040668;28;20152;-59
2023/07/07 14:51:25;;;;;;;2.30;1.40;;;;;;;;;;5049016;28;20045;-59
2023/07/07 14:53:56;;;;;;;1.52;1.40;;;;;;;;;;5050512;28;20224;-59
2023/07/07 14:56:30;;;;;;;1.27;1.15;;;;;;;;;;5051205;28;20417;-58